Información del aeropuerto LEAM

Información de pista
Pista 08 Longitud 10499 ft Anchura 148 ft
Elevación 26 ft Umbral 492 ft Rumbo 73
Pista 26 Longitud 10499 ft Anchura 148 ft
Elevación 70 ft Umbral 0 ft Rumbo 253
Frecuencias del aeropuerto
Tipo APP Nombre APP Frecuencia 118.35 MHZ
Tipo GND Nombre GND Frecuencia 121.7 MHZ
Tipo TWR Nombre TWR Frecuencia 118.35 MHZ
Radioayudas del aeropuerto
Tipo NDB Nombre Almeria Frecuencia 284 KHZ
Tipo NDB Nombre Almeria Frecuencia 310 KHZ
Tipo VOR-DME Nombre Almeria Frecuencia 114100 KHZ
Información meteorológica del aeropuerto y NOTAM
ADDS - METARS form results

(2353 UTC 05 May 2021)
Data provider http://aviationweather.gov/metar/data/
 
METAR text: LEAM 052330Z AUTO 35005KT CAVOK 18/12 Q1017
Conditions at: LEAM (ALMERIA AIRPORT , ES) observed 2330 UTC 05 May 2021
Temperature: 18.0°C (64°F)
Dewpoint: 12.0°C (54°F) [RH = 68%]
Pressure (altimeter): 30.03 inches Hg (1017.0 mb)
Winds: from the N (350 degrees) at 6 MPH (5 knots; 2.6 m/s)
Visibility: 6 or more miles (10+ km)
Ceiling: ceiling and visibility are OK
Clouds: unknown
Weather: no significant weather observed at this time

METAR text: LEAM 052300Z AUTO 33007KT CAVOK 18/12 Q1016
Conditions at: LEAM (ALMERIA AIRPORT , ES) observed 2300 UTC 05 May 2021
Temperature: 18.0°C (64°F)
Dewpoint: 12.0°C (54°F) [RH = 68%]
Pressure (altimeter): 30.00 inches Hg (1016.0 mb)
Winds: from the NNW (330 degrees) at 8 MPH (7 knots; 3.6 m/s)
Visibility: 6 or more miles (10+ km)
Ceiling: ceiling and visibility are OK
Clouds: unknown
Weather: no significant weather observed at this time

Forecast for: LEAM (ALMERIA AIRPORT , ES)
Text: TAF LEAM 052300Z 0600/0624 VRB02KT 9999 FEW020 TX22/0613Z TN14/0606Z
Forecast period: 0000 to 0800 UTC 06 May 2021
Forecast type: FROM: standard forecast or significant change
Winds: variable direction winds at 2 MPH (2 knots; 1.0 m/s)
Visibility: 6 or more miles (10+ km)
Ceiling: at least 12,000 feet AGL
Clouds: few clouds at 2000 feet AGL
Weather: no significant weather forecast for this period
Text: BECMG 0608/0610 20010KT
Forecast period: 0800 to 1800 UTC 06 May 2021
Forecast type: BECOMING: Conditions expected to become as follows by 1000 UTC 06 May 2021
Winds: from the SSW (200 degrees) at 12 MPH (10 knots; 5.1 m/s)
Visibility: 6 or more miles (10+ km)
Ceiling: at least 12,000 feet AGL
Clouds: few clouds at 2000 feet AGL
Weather: no significant weather forecast for this period
Text: BECMG 0618/0620 VRB02KT
Forecast period: 1800 UTC 06 May 2021 to 0000 UTC 07 May 2021
Forecast type: BECOMING: Conditions expected to become as follows by 2000 UTC 06 May 2021
Winds: variable direction winds at 2 MPH (2 knots; 1.0 m/s)
Visibility: 6 or more miles (10+ km)
Ceiling: at least 12,000 feet AGL
Clouds: few clouds at 2000 feet AGL
Weather: no significant weather forecast for this period